Hauptseite
METAR-TAF:

METAR-TAF

Flughäfen :

Dakar, Senegal

Flughafen Dakar-Léopold Sédar Senghor

Breite: 14-44N, Länge: 017-30W, Höhe: 27 m

Beobachtung

Neuester Wetterbericht von vor 42 Minuten, um 11:30 UTC
Wind 7 kt aus West/Südwest, variierte zwischen Süd/Südwest und Nordwest
Temperatur 28°C
Luftfeuchtigkeit 70%
Luftdruck 1012 hPa
Sichtweite 10 km oder mehr
Aufgelockert bewölkt in der Höhe von 1600 ft

METAR: GOOY 221130Z 25007KT 200V320 9999 SCT016 28/22 Q1012 NOSIG

Zeit: 12:12 (12:12 UTC)

Prognose

Neuester Wetterbericht von vor 42 Minuten, um 11:30 UTC
Gültige Prognose vom 22 um 12 UTC bis 23 um 18 UTC
Wind 8 kt aus Südwest
Sichtweite 10 km oder mehr
Durchbrochene Bewölkung in der Höhe von 1000 ft
Zeitweise
vom 22 um 14 UTC bis 22 um 18 UTC
Aufgelockert bewölkt in der Höhe von 1000 ft

TAF: GOOY 221130Z 2212/2318 23008KT 9999 BKN010 TEMPO 2214/2218 SCT010

Wetterbeobachtungen und Prognosen von mehr als 4000 Flughäfen (METAR und TAF Bericht).

Die verfügbaren Stationen werden durch gelbe und rote Markierungen auf der Karte dargestellt.

Führen Sie die Maus auf sie, um den Namen der Station zu sehen.

Darauf klicken, um die Beobachtung von Wetterbeobachtungen und Prognosen zu sehen.

Um die Karte zu ändern : klicken Sie auf den grünen Tasten mit einem schwarzen Kreuz Zum Vergrößern, auf den grünen Button mit einem Gedankenstrich zu verkleinern, oder auf die grünen Pfeile für benachbarte Karten.


METAR-TAF: